createdAt,value
2022-08-24T00:00:58.049Z,100.00
2022-08-24T00:04:59.766Z,100.00
2022-08-24T00:09:01.306Z,100.00
2022-08-24T00:13:02.902Z,100.00
2022-08-24T00:17:04.934Z,100.00
2022-08-24T00:21:08.126Z,100.00
2022-08-24T00:25:11.817Z,100.00
2022-08-24T00:29:17.431Z,100.00
2022-08-24T00:33:18.918Z,100.00
2022-08-24T00:37:20.468Z,100.00
2022-08-24T00:41:22.584Z,100.00
2022-08-24T00:45:27.229Z,100.00
2022-08-24T00:49:45.959Z,100.00
2022-08-24T00:53:53.005Z,100.00
2022-08-24T00:57:59.699Z,100.00
2022-08-24T01:02:15.267Z,100.00
2022-08-24T01:06:17.497Z,100.00
2022-08-24T01:10:25.823Z,100.00
2022-08-24T01:14:27.344Z,100.00
2022-08-24T01:18:47.550Z,100.00
2022-08-24T01:23:13.552Z,100.00
2022-08-24T01:27:15.593Z,100.00
2022-08-24T01:31:22.091Z,100.00
2022-08-24T01:35:24.325Z,100.00
2022-08-24T01:39:33.851Z,100.00
2022-08-24T01:43:37.397Z,100.00
2022-08-24T01:47:39.013Z,100.00
2022-08-24T01:51:42.330Z,100.00
2022-08-24T01:55:44.777Z,100.00
2022-08-24T01:59:46.252Z,100.00
2022-08-24T02:03:51.843Z,100.00
2022-08-24T02:07:53.619Z,100.00
2022-08-24T02:11:55.391Z,100.00
2022-08-24T02:15:57.436Z,100.00
2022-08-24T02:19:58.910Z,100.00
2022-08-24T02:24:00.363Z,100.00
2022-08-24T02:28:01.993Z,100.00
2022-08-24T02:32:04.702Z,100.00
2022-08-24T02:36:10.460Z,100.00
2022-08-24T02:40:28.154Z,100.00
2022-08-24T02:44:29.655Z,100.00
2022-08-24T02:48:31.114Z,100.00
2022-08-24T02:52:32.623Z,100.00
2022-08-24T02:56:34.070Z,100.00
2022-08-24T03:00:38.427Z,100.00
2022-08-24T03:04:40.872Z,100.00
2022-08-24T03:08:42.351Z,100.00
2022-08-24T03:12:50.416Z,100.00
2022-08-24T03:16:51.855Z,100.00
2022-08-24T03:20:54.843Z,100.00
2022-08-24T03:24:56.550Z,100.00
2022-08-24T03:28:59.041Z,100.00
2022-08-24T03:33:01.504Z,100.00
2022-08-24T03:37:02.997Z,100.00
2022-08-24T03:41:04.565Z,100.00
2022-08-24T03:45:06.985Z,100.00
2022-08-24T03:49:10.077Z,100.00
2022-08-24T03:53:11.735Z,100.00
2022-08-24T03:57:14.409Z,100.00
2022-08-24T04:01:17.666Z,100.00
2022-08-24T04:05:19.427Z,100.00
2022-08-24T04:09:20.892Z,100.00
2022-08-24T04:13:22.366Z,100.00
2022-08-24T04:17:23.839Z,100.00
2022-08-24T04:21:32.067Z,100.00
2022-08-24T04:25:45.220Z,100.00
2022-08-24T04:29:46.687Z,100.00
2022-08-24T04:33:53.893Z,100.00
2022-08-24T04:37:55.635Z,100.00
2022-08-24T04:41:57.548Z,100.00
2022-08-24T04:46:06.505Z,100.00
2022-08-24T04:50:08.385Z,100.00
2022-08-24T04:54:09.867Z,100.00
2022-08-24T04:58:13.461Z,100.00
2022-08-24T05:02:14.970Z,100.00
2022-08-24T05:06:18.757Z,100.00
2022-08-24T05:10:21.027Z,100.00
2022-08-24T05:14:25.667Z,100.00
2022-08-24T05:18:30.172Z,100.00
2022-08-24T05:22:31.794Z,100.00
2022-08-24T05:26:34.090Z,100.00
2022-08-24T05:30:40.594Z,100.00
2022-08-24T05:34:44.540Z,100.00
2022-08-24T05:38:47.867Z,100.00
2022-08-24T05:42:49.604Z,100.00
2022-08-24T05:46:51.377Z,100.00
2022-08-24T05:50:55.004Z,100.00
2022-08-24T05:54:59.148Z,100.00
2022-08-24T05:59:00.860Z,100.00
2022-08-24T06:03:02.473Z,100.00
2022-08-24T06:07:05.449Z,100.00
2022-08-24T06:11:06.995Z,100.00
2022-08-24T06:15:09.607Z,100.00
2022-08-24T06:19:13.867Z,100.00
2022-08-24T06:23:15.393Z,100.00
2022-08-24T06:27:23.514Z,100.00
2022-08-24T06:31:28.924Z,100.00
2022-08-24T06:35:44.847Z,100.00
2022-08-24T06:39:48.988Z,100.00
2022-08-24T06:43:57.184Z,100.00
2022-08-24T06:47:58.810Z,100.00
2022-08-24T06:52:00.361Z,100.00
2022-08-24T06:56:02.408Z,100.00
2022-08-24T07:00:05.006Z,100.00
2022-08-24T07:04:06.463Z,100.00
2022-08-24T07:08:08.144Z,100.00
2022-08-24T07:12:09.700Z,100.00
2022-08-24T07:16:11.242Z,100.00
2022-08-24T07:20:12.829Z,100.00
2022-08-24T07:24:14.395Z,100.00
2022-08-24T07:28:16.296Z,100.00
2022-08-24T07:32:18.172Z,100.00
2022-08-24T07:36:22.478Z,100.00
2022-08-24T07:40:26.949Z,100.00
2022-08-24T07:44:28.512Z,100.00
2022-08-24T07:48:32.022Z,100.00
2022-08-24T07:52:35.770Z,100.00
2022-08-24T07:56:37.216Z,100.00
2022-08-24T08:00:38.748Z,100.00
2022-08-24T08:04:41.476Z,100.00
2022-08-24T08:08:43.443Z,100.00
2022-08-24T08:12:50.237Z,100.00
2022-08-24T08:16:53.997Z,100.00
2022-08-24T08:20:55.588Z,100.00
2022-08-24T08:24:57.033Z,100.00
2022-08-24T08:28:58.472Z,100.00
2022-08-24T08:33:00.006Z,100.00
2022-08-24T08:37:03.569Z,100.00
2022-08-24T08:41:05.412Z,100.00
2022-08-24T08:45:35.352Z,100.00
2022-08-24T08:50:12.959Z,100.00
2022-08-24T08:54:30.357Z,100.00
2022-08-24T08:59:07.290Z,100.00
2022-08-24T09:03:17.356Z,100.00
2022-08-24T09:07:27.486Z,100.00
2022-08-24T09:11:41.529Z,97.12
2022-08-24T09:16:08.407Z,91.25
2022-08-24T09:20:56.087Z,89.63
2022-08-24T09:25:09.766Z,88.34
2022-08-24T09:29:13.926Z,90.05
2022-08-24T09:33:21.148Z,95.16
2022-08-24T09:37:56.196Z,95.20
2022-08-24T09:42:18.932Z,93.31
2022-08-24T09:46:43.210Z,96.45
2022-08-24T09:51:32.648Z,94.38
2022-08-24T09:55:37.274Z,93.65
2022-08-24T10:00:09.538Z,94.04
2022-08-24T10:04:36.648Z,94.65
2022-08-24T10:09:12.422Z,88.80
2022-08-24T10:13:43.253Z,95.03
2022-08-24T10:18:22.992Z,90.52
2022-08-24T10:22:49.271Z,89.04
2022-08-24T10:27:15.631Z,88.07
2022-08-24T10:31:31.822Z,92.66
2022-08-24T10:36:04.734Z,90.61
2022-08-24T10:40:10.302Z,88.87
2022-08-24T10:44:40.722Z,86.06
2022-08-24T10:48:53.576Z,83.50
2022-08-24T10:53:13.815Z,84.02
2022-08-24T10:57:26.555Z,85.21
2022-08-24T11:01:31.907Z,82.80
2022-08-24T11:05:42.074Z,81.96
2022-08-24T11:09:45.167Z,79.95
2022-08-24T11:13:59.166Z,78.98
2022-08-24T11:18:04.281Z,81.97
2022-08-24T11:22:21.469Z,79.87
2022-08-24T11:26:25.741Z,77.92
2022-08-24T11:30:29.527Z,72.31
2022-08-24T11:34:38.079Z,72.81
2022-08-24T11:38:39.504Z,74.29
2022-08-24T11:42:53.497Z,75.29
2022-08-24T11:47:03.649Z,72.43
2022-08-24T11:51:13.639Z,69.67
2022-08-24T11:55:24.577Z,67.86
2022-08-24T11:59:50.246Z,63.84
2022-08-24T12:04:29.435Z,62.50
2022-08-24T12:08:45.874Z,62.37
2022-08-24T12:13:09.360Z,62.24
2022-08-24T12:17:26.498Z,61.11
2022-08-24T12:21:34.409Z,63.94
2022-08-24T12:25:55.190Z,63.22
2022-08-24T12:30:12.309Z,64.15
2022-08-24T12:34:24.775Z,66.63
2022-08-24T12:38:33.375Z,60.91
2022-08-24T12:42:51.282Z,58.31
2022-08-24T12:46:54.480Z,53.72
2022-08-24T12:51:08.153Z,54.24
2022-08-24T12:55:35.626Z,58.26
2022-08-24T12:59:39.487Z,56.31
2022-08-24T13:03:43.825Z,55.08
2022-08-24T13:07:48.873Z,52.48
2022-08-24T13:11:50.317Z,51.30
2022-08-24T13:15:56.285Z,51.75
2022-08-24T13:20:20.026Z,50.00
2022-08-24T13:24:30.645Z,49.58
2022-08-24T13:28:48.542Z,48.18
2022-08-24T13:33:01.051Z,45.10
2022-08-24T13:37:14.212Z,51.90
2022-08-24T13:41:37.427Z,54.23
2022-08-24T13:45:42.661Z,55.66
2022-08-24T13:50:03.021Z,57.36
2022-08-24T13:54:23.940Z,57.45
2022-08-24T13:58:45.139Z,58.93
2022-08-24T14:03:18.721Z,57.46
2022-08-24T14:07:59.871Z,51.79
2022-08-24T14:12:07.313Z,48.31
2022-08-24T14:16:46.484Z,46.49
2022-08-24T14:20:54.099Z,47.17
2022-08-24T14:25:17.255Z,45.40
2022-08-24T14:29:18.642Z,42.18
2022-08-24T14:33:30.616Z,42.73
2022-08-24T14:38:05.058Z,46.07
2022-08-24T14:42:51.718Z,46.59
2022-08-24T14:47:02.339Z,49.20
2022-08-24T14:51:32.965Z,48.37
2022-08-24T14:55:53.291Z,49.09
2022-08-24T15:00:13.729Z,52.29
2022-08-24T15:04:37.841Z,52.92
2022-08-24T15:08:43.135Z,57.34
2022-08-24T15:12:51.571Z,60.08
2022-08-24T15:17:03.419Z,61.98
2022-08-24T15:21:26.729Z,60.71
2022-08-24T15:26:04.783Z,61.37
2022-08-24T15:30:20.642Z,62.53
2022-08-24T15:34:40.396Z,63.92
2022-08-24T15:38:42.406Z,67.01
2022-08-24T15:42:44.385Z,65.57
2022-08-24T15:47:00.581Z,60.97
2022-08-24T15:51:02.562Z,61.14
2022-08-24T15:55:06.460Z,59.96
2022-08-24T15:59:13.903Z,57.88
2022-08-24T16:03:48.660Z,57.15
2022-08-24T16:08:02.391Z,57.41
2022-08-24T16:12:12.720Z,58.46
2022-08-24T16:16:16.794Z,58.63
2022-08-24T16:20:24.596Z,59.71
2022-08-24T16:24:28.608Z,61.05
2022-08-24T16:28:36.042Z,58.33
2022-08-24T16:32:54.026Z,58.03
2022-08-24T16:36:56.714Z,54.92
2022-08-24T16:41:00.623Z,53.46
2022-08-24T16:45:04.604Z,52.24
2022-08-24T16:49:12.566Z,56.34
2022-08-24T16:53:14.301Z,54.61
2022-08-24T16:57:19.687Z,51.63
2022-08-24T17:01:21.293Z,54.99
2022-08-24T17:05:23.727Z,54.93
2022-08-24T17:09:25.292Z,51.50
2022-08-24T17:13:48.390Z,51.41
2022-08-24T17:17:56.302Z,53.09
2022-08-24T17:21:57.873Z,53.84
2022-08-24T17:26:00.230Z,53.44
2022-08-24T17:30:04.041Z,53.41
2022-08-24T17:34:08.023Z,55.53
2022-08-24T17:38:09.535Z,58.79
2022-08-24T17:42:33.736Z,61.03
2022-08-24T17:46:32.995Z,61.28
2022-08-24T17:50:35.695Z,61.62
2022-08-24T17:54:37.186Z,66.28
2022-08-24T17:58:58.654Z,67.83
2022-08-24T18:03:00.160Z,69.56
2022-08-24T18:07:06.651Z,73.53
2022-08-24T18:11:13.119Z,72.10
2022-08-24T18:15:14.716Z,74.50
2022-08-24T18:19:16.371Z,78.46
2022-08-24T18:23:21.220Z,79.36
2022-08-24T18:27:29.841Z,80.31
2022-08-24T18:31:31.712Z,80.98
2022-08-24T18:35:34.512Z,82.99
2022-08-24T18:39:36.550Z,84.42
2022-08-24T18:43:38.245Z,83.02
2022-08-24T18:47:40.111Z,83.70
2022-08-24T18:51:43.007Z,86.21
2022-08-24T18:55:46.302Z,85.25
2022-08-24T18:59:47.913Z,84.06
2022-08-24T19:03:50.366Z,86.98
2022-08-24T19:07:53.259Z,87.19
2022-08-24T19:11:54.830Z,87.12
2022-08-24T19:15:58.180Z,87.80
2022-08-24T19:19:59.728Z,88.77
2022-08-24T19:24:02.493Z,88.56
2022-08-24T19:28:06.246Z,91.98
2022-08-24T19:32:13.880Z,92.01
2022-08-24T19:36:23.811Z,90.84
2022-08-24T19:40:25.355Z,91.66
2022-08-24T19:44:51.999Z,92.48
2022-08-24T19:48:54.027Z,93.81
2022-08-24T19:52:58.498Z,93.08
2022-08-24T19:57:01.044Z,92.71
2022-08-24T20:01:11.598Z,96.88
2022-08-24T20:05:13.587Z,97.82
2022-08-24T20:09:15.119Z,97.41
2022-08-24T20:13:17.056Z,97.27
2022-08-24T20:17:18.517Z,98.90
2022-08-24T20:21:29.803Z,99.74
2022-08-24T20:25:33.882Z,97.93
2022-08-24T20:29:35.381Z,96.87
2022-08-24T20:33:36.971Z,99.16
2022-08-24T20:37:41.303Z,99.03
2022-08-24T20:41:42.761Z,98.60
2022-08-24T20:45:45.376Z,98.93
2022-08-24T20:49:47.899Z,100.00
2022-08-24T20:53:49.353Z,100.00
2022-08-24T20:57:55.881Z,100.00
2022-08-24T21:01:57.345Z,100.00
2022-08-24T21:05:59.330Z,100.00
2022-08-24T21:10:00.979Z,100.00
2022-08-24T21:14:06.023Z,100.00
2022-08-24T21:18:07.583Z,100.00
2022-08-24T21:22:09.489Z,100.00
2022-08-24T21:26:14.177Z,100.00
2022-08-24T21:30:19.543Z,100.00
2022-08-24T21:34:39.710Z,100.00
2022-08-24T21:38:44.701Z,100.00
2022-08-24T21:42:47.010Z,100.00
2022-08-24T21:46:50.458Z,100.00
2022-08-24T21:50:52.051Z,100.00
2022-08-24T21:54:56.289Z,100.00
2022-08-24T21:58:58.783Z,100.00
2022-08-24T22:03:00.501Z,100.00
2022-08-24T22:07:02.437Z,100.00
2022-08-24T22:11:05.100Z,100.00
2022-08-24T22:15:09.076Z,100.00
2022-08-24T22:19:11.790Z,100.00
2022-08-24T22:23:13.396Z,100.00
2022-08-24T22:27:14.876Z,100.00
2022-08-24T22:31:35.949Z,100.00
2022-08-24T22:35:44.765Z,100.00
2022-08-24T22:39:47.052Z,100.00
2022-08-24T22:44:07.918Z,100.00
2022-08-24T22:48:09.584Z,100.00
2022-08-24T22:52:12.981Z,100.00
2022-08-24T22:56:17.240Z,100.00
2022-08-24T23:00:19.035Z,100.00
2022-08-24T23:04:23.871Z,100.00
2022-08-24T23:08:25.384Z,100.00
2022-08-24T23:12:28.484Z,100.00
2022-08-24T23:16:32.098Z,100.00
2022-08-24T23:20:33.568Z,100.00
2022-08-24T23:24:35.902Z,100.00
2022-08-24T23:28:37.469Z,100.00
2022-08-24T23:32:40.118Z,100.00
2022-08-24T23:36:43.095Z,100.00
2022-08-24T23:40:44.764Z,100.00
2022-08-24T23:44:46.868Z,100.00
2022-08-24T23:48:55.463Z,100.00
2022-08-24T23:52:57.716Z,100.00
2022-08-24T23:56:59.186Z,100.00
